Aérodrome :
LOGIN :

S'inscrire | Disclaimer

   EN    FR    IT 

 










Légende :    VFR   VFR Marginal   IFR   IFR Intensif   IFR Très Intensif
Visi : 
Plafond : 
>= 8 km
>= 3000ft
5 à 8 km
1000 à 3000 ft
1500m à 5 km
500 à 1000 ft
800 à 1500m
200 à 500 ft
< 800m
< 200 ft
Symboles :   Orages  Brouillard  Fortes neiges  Fortes précipitations  Vent > 20 kt
SIGMETs :   Divers  Orages  Givrage  Turbulence  Onde Orograph.  Cendres Volcan.







- Altitude de l'aérodrome : 1325 ft
- Code IATA : EBU
- Voir les cartes d'approche


LFMH - St-Etienne Boutheon

DERNIER METAR :
  • 251530Z AUTO 33009KT 300V010 9999 OVC035 01/M07 Q1013 NOSIG

METARs EXPIRÉS :
  • 251500Z AUTO 33009KT 300V360 9999 OVC034 01/M07 Q1013 NOSIG
  • 251430Z AUTO 33009KT 300V010 9999 OVC031 00/M06 Q1013 NOSIG
  • 251400Z AUTO 34008KT 310V010 9999 OVC031 00/M06 Q1013 NOSIG
  • 251330Z AUTO 36008KT 9999 OVC024 M00/M06 Q1013 NOSIG
  • 251300Z AUTO 36009KT 9999 OVC023 M01/M06 Q1013 NOSIG

TAF TAF LFMH
Valide du 25 à 15h jusqu'au 26 à 15h UTC


251400Z 2515/2615 34008KT 9999 BKN025
BECMG 2515/2518 CAVOK
TEMPO 2515/2517 34015KT
TEMPO 2609/2615 BKN040
PROB30
TEMPO 2612/2615 35015G25KT
ATIS : +33 4 77 36 17 51
Pas de NOTAMs connus pour ce terrain.
2 SIGMETs publiés pour la FIR Marseille (LFMM) :
 
Turbulence forte
LFMM SIGMET 2 VALID 251600/252000 LFPW
LFMM MARSEILLE FIR/UIR SEV TURB FCST WI N4345 E00745 - N4315 E00930 - N4145 E00745 - N4300 E00615 - N4345 E00745 SFC/FL080 STNR INTSF=
Turbulence forte
LFMM SIGMET 1 VALID 251600/252000 LFPW
LFMM MARSEILLE FIR/UIR SEV TURB FCST WI N4500 E00415 - N4500 E00515 - N4230 E00530 - N4230 E00415 - N4500 E00415 SFC/FL040 STNR INTSF=



MET'MAP, la Météo Aéronautique d'un coup d'oeil ! - Copyright ORBIFLY Décembre 2007 - Disclaimer

ORBIFLY MET'MAP TEAM :

Programmation & Développement : Alexandra Zaïnal
Conception & Développement : Baudouin d'Aumeries
Co-Programmation & Développement : Marc-Olivier Méhu
Soutien technique & logistique : Manuel Goepfert

Contact : metmap@orbifly.com




SOURCES & CREDITS :

   NOAA